createdAt,value
2018-07-07T00:00:17.522Z,12.67
2018-07-07T00:02:44.797Z,13.62
2018-07-07T00:05:12.137Z,13.50
2018-07-07T00:07:40.159Z,13.95
2018-07-07T00:10:08.300Z,13.68
2018-07-07T00:12:35.642Z,12.00
2018-07-07T00:15:03.113Z,12.30
2018-07-07T00:17:30.504Z,11.70
2018-07-07T00:19:57.862Z,11.87
2018-07-07T00:22:25.278Z,10.87
2018-07-07T00:24:52.551Z,11.40
2018-07-07T00:27:19.949Z,10.10
2018-07-07T00:29:47.795Z,12.07
2018-07-07T00:32:15.164Z,11.37
2018-07-07T00:34:42.598Z,11.23
2018-07-07T00:37:09.908Z,12.00
2018-07-07T00:39:37.288Z,10.93
2018-07-07T00:42:04.644Z,11.27
2018-07-07T00:44:31.940Z,9.97
2018-07-07T00:46:59.356Z,11.23
2018-07-07T00:49:26.723Z,11.60
2018-07-07T00:51:54.071Z,12.87
2018-07-07T00:54:21.394Z,10.70
2018-07-07T00:56:48.672Z,12.13
2018-07-07T00:59:16.020Z,11.47
2018-07-07T01:01:43.327Z,13.73
2018-07-07T01:04:10.652Z,11.33
2018-07-07T01:06:38.103Z,13.65
2018-07-07T01:09:05.579Z,13.62
2018-07-07T01:11:32.975Z,13.35
2018-07-07T01:14:00.328Z,13.65
2018-07-07T01:16:27.652Z,13.60
2018-07-07T01:18:55.005Z,14.50
2018-07-07T01:21:22.791Z,13.72
2018-07-07T01:23:50.458Z,14.10
2018-07-07T01:26:17.843Z,13.80
2018-07-07T01:28:45.225Z,13.40
2018-07-07T01:31:12.550Z,14.25
2018-07-07T01:33:39.887Z,13.80
2018-07-07T01:36:12.467Z,14.90
2018-07-07T01:38:44.852Z,13.60
2018-07-07T01:41:12.141Z,13.67
2018-07-07T01:43:39.462Z,13.08
2018-07-07T01:46:06.830Z,13.75
2018-07-07T01:48:34.157Z,13.13
2018-07-07T01:51:01.454Z,13.50
2018-07-07T01:53:28.788Z,15.00
2018-07-07T01:55:56.153Z,13.62
2018-07-07T01:58:23.464Z,13.18
2018-07-07T02:00:50.695Z,13.65
2018-07-07T02:03:18.019Z,13.28
2018-07-07T02:05:45.354Z,14.60
2018-07-07T02:08:12.686Z,14.10
2018-07-07T02:10:40.052Z,14.10
2018-07-07T02:13:07.396Z,13.55
2018-07-07T02:15:34.761Z,14.30
2018-07-07T02:18:02.007Z,14.25
2018-07-07T02:20:29.344Z,14.38
2018-07-07T02:22:56.614Z,14.53
2018-07-07T02:25:23.926Z,14.85
2018-07-07T02:27:51.211Z,14.68
2018-07-07T02:30:18.533Z,15.55
2018-07-07T02:32:45.873Z,14.70
2018-07-07T02:35:13.217Z,14.58
2018-07-07T02:37:40.515Z,15.18
2018-07-07T02:40:07.903Z,14.50
2018-07-07T02:42:35.214Z,14.73
2018-07-07T02:45:02.517Z,14.83
2018-07-07T02:47:29.835Z,14.95
2018-07-07T02:49:57.420Z,15.28
2018-07-07T02:52:24.764Z,15.25
2018-07-07T02:54:52.140Z,14.15
2018-07-07T02:57:19.408Z,15.00
2018-07-07T02:59:47.053Z,14.70
2018-07-07T03:02:14.407Z,14.45
2018-07-07T03:04:41.782Z,15.10
2018-07-07T03:07:09.108Z,14.10
2018-07-07T03:09:36.406Z,14.80
2018-07-07T03:12:03.738Z,14.13
2018-07-07T03:14:31.189Z,14.05
2018-07-07T03:16:58.565Z,13.83
2018-07-07T03:19:25.915Z,14.15
2018-07-07T03:21:53.199Z,14.15
2018-07-07T03:24:20.555Z,14.20
2018-07-07T03:26:47.883Z,15.43
2018-07-07T03:29:15.171Z,16.62
2018-07-07T03:31:42.580Z,16.67
2018-07-07T03:34:09.886Z,17.20
2018-07-07T03:36:37.230Z,14.85
2018-07-07T03:39:05.671Z,15.78
2018-07-07T03:41:33.002Z,15.80
2018-07-07T03:44:00.255Z,15.00
2018-07-07T03:46:27.683Z,15.72
2018-07-07T03:48:54.931Z,16.25
2018-07-07T03:51:22.215Z,17.00
2018-07-07T03:53:49.537Z,17.15
2018-07-07T03:56:16.815Z,17.17
2018-07-07T03:58:44.170Z,16.30
2018-07-07T04:01:11.568Z,16.40
2018-07-07T04:03:38.842Z,14.87
2018-07-07T04:06:06.123Z,15.83
2018-07-07T04:08:33.458Z,15.38
2018-07-07T04:11:00.773Z,15.58
2018-07-07T04:13:28.063Z,16.62
2018-07-07T04:15:55.337Z,13.85
2018-07-07T04:18:39.636Z,14.20
2018-07-07T04:21:06.961Z,15.60
2018-07-07T04:23:34.775Z,14.65
2018-07-07T04:26:02.365Z,15.93
2018-07-07T04:28:30.154Z,15.00
2018-07-07T04:30:57.694Z,15.93
2018-07-07T04:33:25.663Z,15.08
2018-07-07T04:35:52.960Z,16.43
2018-07-07T04:38:20.320Z,15.60
2018-07-07T04:40:48.184Z,15.23
2018-07-07T04:43:15.852Z,15.60
2018-07-07T04:45:43.261Z,15.60
2018-07-07T04:48:10.615Z,15.50
2018-07-07T04:50:37.961Z,15.57
2018-07-07T04:53:05.640Z,16.50
2018-07-07T04:55:32.975Z,14.18
2018-07-07T04:58:00.335Z,15.55
2018-07-07T05:00:27.801Z,13.83
2018-07-07T05:02:55.137Z,15.53
2018-07-07T05:05:22.427Z,14.83
2018-07-07T05:07:49.749Z,15.00
2018-07-07T05:10:17.098Z,14.80
2018-07-07T05:12:44.467Z,15.43
2018-07-07T05:15:11.757Z,14.60
2018-07-07T05:17:39.097Z,16.50
2018-07-07T05:20:06.512Z,17.20
2018-07-07T05:22:33.770Z,17.42
2018-07-07T05:25:01.480Z,16.45
2018-07-07T05:27:28.760Z,16.30
2018-07-07T05:29:56.067Z,16.45
2018-07-07T05:32:23.395Z,17.10
2018-07-07T05:34:50.695Z,16.42
2018-07-07T05:37:18.014Z,16.52
2018-07-07T05:39:45.486Z,17.00
2018-07-07T05:42:12.761Z,17.10
2018-07-07T05:44:40.100Z,17.27
2018-07-07T05:47:07.959Z,15.68
2018-07-07T05:49:35.416Z,17.60
2018-07-07T05:52:02.874Z,16.80
2018-07-07T05:54:30.164Z,16.80
2018-07-07T05:56:57.574Z,16.50
2018-07-07T05:59:24.915Z,16.90
2018-07-07T06:01:52.192Z,17.82
2018-07-07T06:04:19.625Z,17.32
2018-07-07T06:06:46.929Z,17.17
2018-07-07T06:09:14.354Z,16.35
2018-07-07T06:11:41.735Z,16.55
2018-07-07T06:14:09.023Z,15.00
2018-07-07T06:16:36.321Z,15.90
2018-07-07T06:19:03.610Z,15.00
2018-07-07T06:21:31.040Z,14.40
2018-07-07T06:23:58.335Z,15.50
2018-07-07T06:26:26.024Z,16.10
2018-07-07T06:28:53.331Z,16.83
2018-07-07T06:31:20.661Z,13.97
2018-07-07T06:33:48.097Z,14.73
2018-07-07T06:36:15.498Z,13.90
2018-07-07T06:38:43.051Z,13.00
2018-07-07T06:41:10.367Z,12.17
2018-07-07T06:43:37.797Z,14.40
2018-07-07T06:46:10.355Z,13.40
2018-07-07T06:48:42.854Z,14.20
2018-07-07T06:51:10.085Z,13.30
2018-07-07T06:53:37.523Z,14.70
2018-07-07T07:15:44.913Z,13.80
2018-07-07T07:20:48.315Z,12.30
2018-07-07T07:23:15.575Z,9.30
2018-07-07T07:25:42.818Z,10.87
2018-07-07T07:28:10.086Z,8.17
2018-07-07T07:30:37.399Z,17.87
2018-07-07T07:33:04.911Z,8.43
2018-07-07T07:35:32.199Z,7.47
2018-07-07T07:37:59.489Z,7.20
2018-07-07T07:40:26.841Z,8.30
2018-07-07T07:42:54.124Z,7.70
2018-07-07T07:45:21.541Z,7.00
2018-07-07T07:47:48.890Z,6.93
2018-07-07T07:50:16.192Z,7.20
2018-07-07T07:52:43.483Z,7.10
2018-07-07T07:55:11.004Z,6.20
2018-07-07T07:57:38.245Z,6.57
2018-07-07T08:00:05.560Z,4.60
2018-07-07T08:02:32.870Z,6.50
2018-07-07T08:05:00.241Z,7.10
2018-07-07T08:07:27.972Z,7.07
2018-07-07T08:09:55.296Z,7.83
2018-07-07T08:12:22.747Z,7.10
2018-07-07T08:14:51.738Z,7.07
2018-07-07T08:17:19.112Z,11.77
2018-07-07T08:19:46.426Z,7.90
2018-07-07T08:22:13.730Z,7.30
2018-07-07T08:24:41.093Z,7.77
2018-07-07T08:27:08.417Z,6.27
2018-07-07T08:29:35.916Z,8.33
2018-07-07T08:32:03.263Z,8.17
2018-07-07T08:34:30.666Z,6.03
2018-07-07T08:36:57.905Z,8.97
2018-07-07T08:39:25.263Z,8.10
2018-07-07T08:41:52.682Z,8.83
2018-07-07T08:44:19.931Z,11.57
2018-07-07T08:46:47.266Z,10.10
2018-07-07T08:49:14.575Z,9.73
2018-07-07T08:51:41.912Z,9.37
2018-07-07T08:54:09.217Z,8.23
2018-07-07T08:56:36.502Z,8.73
2018-07-07T08:59:03.971Z,10.13
2018-07-07T09:01:31.268Z,8.13
2018-07-07T09:03:58.629Z,8.67
2018-07-07T09:06:26.074Z,9.03
2018-07-07T09:08:53.493Z,8.63
2018-07-07T09:11:20.858Z,11.23
2018-07-07T09:13:48.150Z,11.57
2018-07-07T09:16:15.595Z,9.87
2018-07-07T09:18:42.841Z,10.23
2018-07-07T09:21:10.171Z,11.10
2018-07-07T09:23:37.509Z,10.20
2018-07-07T09:26:05.059Z,9.93
2018-07-07T09:28:32.355Z,9.50
2018-07-07T09:30:59.995Z,11.27
2018-07-07T09:33:27.347Z,9.00
2018-07-07T09:35:54.652Z,10.70
2018-07-07T09:38:22.038Z,8.50
2018-07-07T09:40:49.400Z,9.63
2018-07-07T09:43:16.728Z,8.93
2018-07-07T09:45:44.063Z,8.57
2018-07-07T09:48:11.358Z,7.40
2018-07-07T09:50:38.655Z,7.33
2018-07-07T09:53:06.032Z,7.80
2018-07-07T09:55:33.371Z,8.00
2018-07-07T09:58:00.631Z,8.87
2018-07-07T10:00:33.729Z,9.60
2018-07-07T10:03:01.011Z,9.03
2018-07-07T10:05:28.240Z,7.77
2018-07-07T10:07:55.530Z,6.03
2018-07-07T10:10:22.843Z,8.70
2018-07-07T10:12:50.231Z,8.93
2018-07-07T10:15:17.534Z,7.63
2018-07-07T10:17:44.829Z,8.17
2018-07-07T10:20:12.191Z,7.60
2018-07-07T10:22:39.449Z,9.93
2018-07-07T10:25:06.723Z,7.77
2018-07-07T10:27:34.073Z,8.80
2018-07-07T10:30:01.418Z,8.40
2018-07-07T10:32:28.744Z,7.70
2018-07-07T10:34:56.338Z,9.10
2018-07-07T10:37:23.658Z,8.90
2018-07-07T10:39:51.061Z,8.70
2018-07-07T10:42:18.312Z,8.40
2018-07-07T10:44:45.617Z,7.93
2018-07-07T10:47:13.004Z,8.90
2018-07-07T10:49:40.615Z,8.20
2018-07-07T10:52:08.163Z,7.37
2018-07-07T10:54:35.562Z,8.20
2018-07-07T10:57:02.800Z,7.97
2018-07-07T10:59:30.138Z,14.00
2018-07-07T11:01:57.334Z,10.03
2018-07-07T11:04:24.657Z,7.63
2018-07-07T11:06:51.946Z,8.53
2018-07-07T11:09:19.209Z,7.87
2018-07-07T11:11:46.539Z,8.67
2018-07-07T11:14:13.812Z,7.77
2018-07-07T11:16:41.035Z,6.50
2018-07-07T11:19:08.343Z,7.53
2018-07-07T11:21:35.699Z,8.80
2018-07-07T11:24:03.117Z,7.63
2018-07-07T11:26:30.427Z,8.40
2018-07-07T11:28:57.690Z,8.97
2018-07-07T11:31:25.003Z,9.30
2018-07-07T11:33:52.334Z,8.93
2018-07-07T11:36:19.650Z,8.77
2018-07-07T11:38:46.880Z,7.60
2018-07-07T11:41:16.333Z,13.73
2018-07-07T11:43:43.926Z,7.70
2018-07-07T11:46:11.312Z,8.57
2018-07-07T11:48:38.726Z,10.53
2018-07-07T11:51:06.146Z,8.20
2018-07-07T11:53:33.420Z,7.90
2018-07-07T11:56:00.704Z,8.00
2018-07-07T11:58:27.985Z,7.97
2018-07-07T12:00:55.334Z,10.40
2018-07-07T12:03:22.645Z,9.77
2018-07-07T12:05:49.986Z,10.27
2018-07-07T12:08:17.333Z,8.93
2018-07-07T12:10:44.583Z,9.17
2018-07-07T12:13:12.046Z,8.73
2018-07-07T12:15:39.366Z,9.40
2018-07-07T12:18:06.637Z,8.03
2018-07-07T12:20:34.028Z,8.60
2018-07-07T12:23:01.259Z,8.40
2018-07-07T12:25:28.562Z,8.67
2018-07-07T12:27:55.904Z,8.70
2018-07-07T12:30:23.255Z,8.13
2018-07-07T12:32:50.575Z,7.67
2018-07-07T12:35:17.860Z,7.67
2018-07-07T12:37:47.200Z,11.43
2018-07-07T12:40:17.457Z,7.20
2018-07-07T12:42:44.779Z,7.97
2018-07-07T12:45:13.624Z,8.20
2018-07-07T12:47:40.867Z,7.73
2018-07-07T12:50:08.249Z,7.77
2018-07-07T12:52:35.751Z,8.30
2018-07-07T12:55:03.189Z,8.23
2018-07-07T12:57:30.495Z,7.03
2018-07-07T12:59:57.775Z,7.60
2018-07-07T13:02:25.048Z,7.40
2018-07-07T13:04:52.303Z,7.03
2018-07-07T13:07:19.600Z,7.77
2018-07-07T13:09:46.920Z,7.53
2018-07-07T13:12:14.216Z,7.03
2018-07-07T13:14:41.483Z,6.33
2018-07-07T13:17:08.847Z,6.83
2018-07-07T13:19:36.122Z,6.83
2018-07-07T13:22:03.476Z,7.17
2018-07-07T13:24:30.809Z,6.73
2018-07-07T13:26:58.228Z,7.07
2018-07-07T13:29:25.553Z,6.30
2018-07-07T13:31:52.962Z,6.80
2018-07-07T13:34:20.369Z,6.43
2018-07-07T13:36:47.688Z,6.33
2018-07-07T13:39:14.949Z,6.77
2018-07-07T13:41:42.211Z,7.50
2018-07-07T13:44:09.551Z,6.40
2018-07-07T13:46:36.843Z,6.17
2018-07-07T13:49:04.098Z,7.20
2018-07-07T13:51:31.435Z,7.27
2018-07-07T13:53:58.799Z,7.10
2018-07-07T13:56:27.667Z,5.93
2018-07-07T13:58:55.207Z,6.20
2018-07-07T14:01:22.563Z,5.90
2018-07-07T14:03:49.888Z,5.20
2018-07-07T14:06:17.185Z,6.50
2018-07-07T14:08:44.498Z,5.87
2018-07-07T14:11:11.778Z,5.87
2018-07-07T14:13:39.106Z,5.07
2018-07-07T14:16:06.514Z,5.93
2018-07-07T14:18:33.874Z,5.70
2018-07-07T14:21:01.158Z,5.13
2018-07-07T14:23:28.499Z,5.50
2018-07-07T14:25:55.866Z,5.20
2018-07-07T14:28:23.135Z,4.20
2018-07-07T14:30:50.460Z,5.30
2018-07-07T14:33:17.777Z,5.73
2018-07-07T14:35:45.044Z,5.13
2018-07-07T14:38:12.305Z,4.80
2018-07-07T14:40:49.608Z,5.10
2018-07-07T14:43:16.932Z,6.33
2018-07-07T14:45:54.405Z,5.73
2018-07-07T14:48:21.712Z,5.83
2018-07-07T14:50:48.932Z,5.37
2018-07-07T14:53:16.238Z,5.50
2018-07-07T14:55:43.492Z,5.83
2018-07-07T14:58:10.988Z,5.40
2018-07-07T15:00:38.224Z,5.27
2018-07-07T15:03:05.533Z,5.47
2018-07-07T15:05:32.884Z,5.67
2018-07-07T15:08:00.253Z,6.00
2018-07-07T15:10:27.589Z,5.93
2018-07-07T15:12:54.882Z,5.70
2018-07-07T15:15:22.175Z,5.60
2018-07-07T15:17:49.464Z,5.83
2018-07-07T15:20:16.788Z,6.07
2018-07-07T15:22:44.176Z,5.40
2018-07-07T15:25:11.546Z,5.70
2018-07-07T15:27:38.957Z,6.10
2018-07-07T15:30:07.150Z,6.03
2018-07-07T15:32:34.570Z,7.20
2018-07-07T15:35:01.883Z,7.00
2018-07-07T15:37:29.225Z,5.73
2018-07-07T15:39:56.494Z,6.47
2018-07-07T15:42:23.885Z,6.40
2018-07-07T15:44:51.196Z,7.80
2018-07-07T15:47:18.419Z,6.37
2018-07-07T15:49:45.713Z,7.13
2018-07-07T15:52:13.053Z,6.93
2018-07-07T15:54:40.303Z,6.73
2018-07-07T15:57:07.608Z,6.47
2018-07-07T15:59:34.941Z,5.43
2018-07-07T16:02:02.260Z,5.97
2018-07-07T16:04:29.581Z,5.63
2018-07-07T16:06:56.895Z,5.57
2018-07-07T16:09:24.178Z,6.07
2018-07-07T16:11:51.434Z,6.53
2018-07-07T16:14:18.799Z,6.90
2018-07-07T16:16:46.154Z,6.60
2018-07-07T16:19:13.436Z,6.70
2018-07-07T16:21:40.817Z,6.20
2018-07-07T16:24:08.172Z,6.43
2018-07-07T16:26:35.750Z,6.50
2018-07-07T16:29:02.971Z,5.80
2018-07-07T16:31:30.263Z,6.53
2018-07-07T16:33:57.647Z,6.03
2018-07-07T16:36:24.990Z,6.40
2018-07-07T16:38:52.313Z,6.70
2018-07-07T16:41:19.611Z,6.10
2018-07-07T16:43:47.022Z,6.97
2018-07-07T16:46:14.486Z,6.53
2018-07-07T16:48:41.875Z,6.93
2018-07-07T16:51:09.792Z,6.20
2018-07-07T16:53:37.062Z,6.67
2018-07-07T16:56:04.815Z,6.47
2018-07-07T16:58:33.156Z,8.70
2018-07-07T17:01:00.424Z,6.97
2018-07-07T17:03:27.739Z,6.80
2018-07-07T17:05:55.060Z,6.37
2018-07-07T17:08:22.608Z,7.37
2018-07-07T17:10:49.959Z,7.30
2018-07-07T17:13:17.321Z,6.00
2018-07-07T17:15:44.618Z,7.10
2018-07-07T17:18:12.070Z,7.67
2018-07-07T17:20:39.373Z,7.47
2018-07-07T17:23:06.761Z,7.87
2018-07-07T17:25:34.134Z,7.47
2018-07-07T17:28:01.710Z,7.20
2018-07-07T17:30:29.107Z,7.53
2018-07-07T17:32:56.849Z,6.93
2018-07-07T17:35:24.469Z,6.77
2018-07-07T17:37:51.798Z,6.90
2018-07-07T17:40:19.076Z,6.33
2018-07-07T17:42:46.515Z,8.40
2018-07-07T17:45:13.986Z,6.73
2018-07-07T17:47:44.719Z,6.13
2018-07-07T17:50:15.632Z,7.70
2018-07-07T17:52:43.125Z,8.80
2018-07-07T17:55:11.450Z,7.17
2018-07-07T17:57:38.802Z,7.37
2018-07-07T18:00:06.373Z,8.00
2018-07-07T18:02:33.687Z,8.20
2018-07-07T18:05:00.981Z,7.83
2018-07-07T18:07:28.445Z,7.47
2018-07-07T18:09:55.836Z,8.77
2018-07-07T18:12:23.287Z,8.90
2018-07-07T18:14:51.492Z,8.30
2018-07-07T18:17:18.820Z,7.70
2018-07-07T18:19:46.116Z,7.00
2018-07-07T18:22:13.498Z,7.83
2018-07-07T18:24:40.841Z,7.77
2018-07-07T18:27:08.178Z,7.47
2018-07-07T18:29:35.839Z,8.07
2018-07-07T18:32:03.083Z,15.67
2018-07-07T18:34:30.315Z,12.70
2018-07-07T18:36:57.670Z,9.00
2018-07-07T18:39:24.965Z,9.23
2018-07-07T18:41:52.245Z,8.77
2018-07-07T18:44:19.554Z,8.50
2018-07-07T18:46:46.847Z,9.10
2018-07-07T18:49:14.273Z,8.90
2018-07-07T18:51:41.662Z,8.47
2018-07-07T18:54:08.948Z,8.33
2018-07-07T18:56:36.277Z,9.90
2018-07-07T18:59:03.574Z,9.77
2018-07-07T19:01:30.906Z,9.50
2018-07-07T19:03:58.189Z,7.90
2018-07-07T19:06:25.489Z,9.50
2018-07-07T19:08:58.374Z,8.07
2018-07-07T19:11:25.702Z,9.00
2018-07-07T19:13:53.058Z,9.13
2018-07-07T19:16:20.335Z,8.60
2018-07-07T19:18:47.745Z,9.30
2018-07-07T19:21:20.711Z,8.60
2018-07-07T19:23:53.861Z,7.50
2018-07-07T19:26:26.761Z,8.73
2018-07-07T19:28:54.022Z,9.07
2018-07-07T19:31:21.517Z,8.83
2018-07-07T19:33:54.450Z,9.67
2018-07-07T19:36:27.665Z,9.13
2018-07-07T19:38:54.942Z,9.07
2018-07-07T19:41:22.305Z,9.60
2018-07-07T19:43:49.774Z,9.50
2018-07-07T19:46:17.203Z,9.77
2018-07-07T19:48:44.414Z,10.13
2018-07-07T19:51:11.818Z,9.03
2018-07-07T19:53:39.177Z,10.43
2018-07-07T19:56:06.466Z,11.17
2018-07-07T19:58:33.727Z,10.00
2018-07-07T20:01:01.015Z,10.57
2018-07-07T20:03:28.400Z,9.30
2018-07-07T20:05:55.716Z,9.90
2018-07-07T20:08:23.044Z,9.27
2018-07-07T20:10:50.384Z,10.40
2018-07-07T20:13:17.687Z,10.20
2018-07-07T20:17:30.030Z,10.50
2018-07-07T20:20:34.444Z,10.80
2018-07-07T20:23:02.919Z,10.50
2018-07-07T20:25:30.263Z,10.00
2018-07-07T20:28:03.573Z,10.27
2018-07-07T20:30:30.961Z,10.47
2018-07-07T20:32:58.247Z,10.70
2018-07-07T20:35:25.551Z,10.13
2018-07-07T20:37:52.872Z,10.10
2018-07-07T20:40:20.146Z,10.10
2018-07-07T20:42:47.504Z,10.83
2018-07-07T20:45:14.819Z,9.83
2018-07-07T20:47:42.217Z,10.70
2018-07-07T20:50:09.595Z,10.67
2018-07-07T20:52:36.921Z,10.60
2018-07-07T20:55:04.213Z,12.23
2018-07-07T20:57:31.497Z,9.77
2018-07-07T20:59:58.756Z,10.50
2018-07-07T21:02:26.061Z,10.10
2018-07-07T21:04:53.354Z,11.63
2018-07-07T21:07:20.724Z,10.00
2018-07-07T21:09:47.982Z,11.47
2018-07-07T21:12:15.287Z,10.70
2018-07-07T21:14:43.363Z,10.97
2018-07-07T21:17:13.754Z,10.53
2018-07-07T21:19:41.038Z,11.60
2018-07-07T21:22:11.639Z,10.97
2018-07-07T21:24:44.008Z,10.50
2018-07-07T21:27:11.292Z,11.00
2018-07-07T21:29:38.609Z,11.60
2018-07-07T21:32:06.043Z,10.27
2018-07-07T21:34:33.229Z,10.90
2018-07-07T21:37:00.535Z,9.93
2018-07-07T21:39:27.898Z,11.13
2018-07-07T21:41:55.238Z,11.40
2018-07-07T21:44:22.574Z,11.33
2018-07-07T21:46:49.918Z,11.87
2018-07-07T21:49:17.087Z,11.93
2018-07-07T21:51:44.422Z,10.57
2018-07-07T21:54:11.706Z,11.43
2018-07-07T21:56:39.085Z,10.47
2018-07-07T21:59:12.088Z,10.10
2018-07-07T22:01:56.904Z,12.33
2018-07-07T22:04:30.613Z,12.73
2018-07-07T22:07:04.075Z,11.33
2018-07-07T22:09:32.535Z,12.27
2018-07-07T22:11:59.986Z,11.03
2018-07-07T22:14:27.318Z,11.50
2018-07-07T22:16:54.631Z,13.87
2018-07-07T22:19:22.020Z,13.20
2018-07-07T22:21:56.299Z,12.80
2018-07-07T22:24:23.863Z,13.43
2018-07-07T22:26:56.483Z,11.90
2018-07-07T22:29:23.952Z,11.13
2018-07-07T22:31:51.350Z,12.00
2018-07-07T22:34:18.664Z,11.57
2018-07-07T22:36:45.982Z,11.33
2018-07-07T22:39:13.377Z,10.60
2018-07-07T22:41:52.880Z,10.03
2018-07-07T22:44:20.535Z,11.20
2018-07-07T22:46:47.894Z,9.63
2018-07-07T22:49:15.387Z,10.77
2018-07-07T22:51:42.790Z,10.70
2018-07-07T22:54:10.284Z,10.30
2018-07-07T22:56:37.669Z,12.67
2018-07-07T22:59:05.063Z,14.33
2018-07-07T23:01:32.340Z,15.73
2018-07-07T23:03:59.726Z,13.83
2018-07-07T23:06:27.088Z,15.00
2018-07-07T23:08:54.395Z,13.40
2018-07-07T23:11:21.967Z,10.40
2018-07-07T23:13:49.459Z,12.70
2018-07-07T23:16:16.978Z,12.73
2018-07-07T23:18:44.344Z,12.77
2018-07-07T23:21:11.659Z,12.33
2018-07-07T23:23:38.959Z,14.10
2018-07-07T23:26:06.195Z,11.50
2018-07-07T23:28:33.493Z,11.53
2018-07-07T23:31:00.850Z,10.00
2018-07-07T23:33:28.174Z,10.33
2018-07-07T23:35:55.617Z,8.97
2018-07-07T23:38:22.937Z,8.90
2018-07-07T23:40:50.329Z,9.07
2018-07-07T23:43:17.657Z,8.40
2018-07-07T23:45:44.893Z,9.70
2018-07-07T23:48:12.196Z,9.87
2018-07-07T23:50:39.506Z,8.83
2018-07-07T23:53:06.867Z,9.20
2018-07-07T23:55:34.387Z,8.97
2018-07-07T23:58:01.719Z,7.00
